Time;durP1;ratioP1;P1;durP2;ratioP2;P2;SDS_P1;SDS_P2;PMS_P1;PMS_P2;Temp;Humidity;BMP_temperature;BMP_pressure;BME280_temperature;BME280_humidity;BME280_pressure;Samples;Min_cycle;Max_cycle;Signal;HPM_P1;HPM_P2
2022/08/18 00:00:26;;;;;;;2.00;1.90;;;24.60;61.30;;;;;;5047990;28;20025;-43
2022/08/18 00:02:59;;;;;;;2.00;1.90;;;24.60;61.30;;;;;;5047750;28;20039;-43
2022/08/18 00:05:25;;;;;;;2.25;2.15;;;24.60;61.20;;;;;;5047155;28;20033;-43
2022/08/18 00:07:50;;;;;;;1.95;1.85;;;24.70;61.30;;;;;;5046649;28;20104;-43
2022/08/18 00:10:16;;;;;;;2.40;2.30;;;24.60;61.20;;;;;;5047937;28;20108;-44
2022/08/18 00:12:42;;;;;;;2.67;2.58;;;24.60;61.30;;;;;;5044043;28;20045;-43
2022/08/18 00:15:09;;;;;;;2.10;2.00;;;24.60;61.40;;;;;;5048158;28;20017;-43
2022/08/18 00:17:35;;;;;;;2.25;2.15;;;24.60;61.30;;;;;;5046129;28;20021;-43
2022/08/18 00:20:01;;;;;;;2.58;2.47;;;24.60;61.40;;;;;;5046093;28;20109;-43
2022/08/18 00:22:27;;;;;;;2.70;2.60;;;24.60;61.40;;;;;;5045903;28;20523;-43
2022/08/18 00:24:54;;;;;;;2.78;2.67;;;24.60;61.30;;;;;;5046659;28;20029;-43
2022/08/18 00:27:25;;;;;;;2.10;2.00;;;24.60;62.10;;;;;;5048151;28;20017;-43
2022/08/18 00:29:51;;;;;;;2.80;2.70;;;24.60;61.40;;;;;;5047002;28;20389;-28
2022/08/18 00:32:19;;;;;;;2.58;2.47;;;24.60;61.40;;;;;;5048437;28;20033;-30
2022/08/18 00:34:45;;;;;;;2.25;2.15;;;24.60;61.50;;;;;;5046401;28;20025;-30
2022/08/18 00:37:10;;;;;;;2.65;2.55;;;24.60;61.30;;;;;;5045912;28;20021;-32
2022/08/18 00:39:36;;;;;;;2.85;2.70;;;24.60;61.40;;;;;;5047750;28;20045;-34
2022/08/18 00:42:36;;;;;;;2.40;2.30;;;24.60;61.40;;;;;;5047025;28;20088;-35
2022/08/18 00:45:03;;;;;;;2.38;2.28;;;24.60;61.50;;;;;;4988329;28;20033;-35
2022/08/18 00:47:29;;;;;;;2.50;2.40;;;24.60;61.50;;;;;;5045680;28;20041;-31
2022/08/18 00:49:55;;;;;;;2.30;2.20;;;24.60;61.50;;;;;;5046528;28;20432;-28
2022/08/18 00:52:20;;;;;;;2.67;2.58;;;24.60;61.50;;;;;;5044609;28;20098;-30
2022/08/18 00:54:46;;;;;;;2.20;2.10;;;24.60;61.50;;;;;;5013635;28;20056;-28
2022/08/18 00:57:12;;;;;;;2.25;2.15;;;24.60;61.50;;;;;;5031527;28;20016;-29
2022/08/18 00:59:54;;;;;;;2.40;2.20;;;24.60;61.30;;;;;;5028159;28;20043;-32
2022/08/18 01:02:26;;;;;;;2.20;2.10;;;24.60;61.40;;;;;;5026691;28;20118;-29
2022/08/18 01:05:03;;;;;;;2.67;2.58;;;24.60;61.40;;;;;;5030046;28;20777;-35
2022/08/18 01:07:47;;;;;;;2.15;2.05;;;24.60;61.40;;;;;;5031826;28;20033;-32
2022/08/18 01:10:16;;;;;;;2.80;2.70;;;24.60;61.40;;;;;;5045378;28;20025;-32
2022/08/18 01:12:45;;;;;;;2.25;2.15;;;24.60;61.40;;;;;;5046177;28;20033;-34
2022/08/18 01:15:12;;;;;;;1.92;1.83;;;24.60;61.30;;;;;;5047038;28;20028;-33
2022/08/18 01:23:18;;;;;;;2.35;2.25;;;24.60;61.30;;;;;;5019546;28;20175;-30
2022/08/18 01:25:58;;;;;;;2.72;2.63;;;24.60;61.30;;;;;;5028504;28;20045;-35
2022/08/18 01:28:25;;;;;;;2.28;2.17;;;24.60;62.20;;;;;;5015425;28;20021;-33
2022/08/18 01:30:56;;;;;;;2.65;2.55;;;24.50;61.40;;;;;;5044487;28;20033;-34
2022/08/18 01:33:25;;;;;;;2.53;2.42;;;24.60;62.20;;;;;;5045495;28;20029;-33
2022/08/18 01:35:51;;;;;;;2.72;2.63;;;24.60;61.40;;;;;;5047168;28;20025;-31
2022/08/18 01:38:17;;;;;;;2.25;2.15;;;24.60;61.30;;;;;;5028747;28;20032;-34
2022/08/18 01:40:44;;;;;;;2.70;2.60;;;24.60;61.30;;;;;;5046072;28;20033;-31
2022/08/18 01:43:10;;;;;;;3.05;2.95;;;24.60;61.30;;;;;;5045025;28;20508;-31
2022/08/18 01:45:36;;;;;;;2.53;2.42;;;24.60;61.30;;;;;;5039014;28;20411;-30
2022/08/18 01:48:03;;;;;;;2.72;2.63;;;24.60;61.30;;;;;;5047565;28;20035;-28
2022/08/18 01:50:29;;;;;;;2.67;2.58;;;24.50;61.30;;;;;;5044750;28;20028;-30
2022/08/18 01:52:54;;;;;;;2.80;2.60;;;24.60;61.40;;;;;;5047189;28;20037;-28
2022/08/18 01:55:20;;;;;;;2.53;2.42;;;24.50;61.30;;;;;;5049146;28;20029;-28
2022/08/18 01:57:45;;;;;;;3.10;2.90;;;24.60;61.30;;;;;;5047957;28;20029;-33
2022/08/18 02:00:13;;;;;;;2.30;2.20;;;24.60;61.30;;;;;;5048769;28;20025;-29
2022/08/18 02:02:39;;;;;;;2.80;2.70;;;24.50;61.30;;;;;;5031851;28;20032;-33
2022/08/18 02:05:12;;;;;;;2.85;2.75;;;24.50;61.30;;;;;;5032694;28;20025;-31
2022/08/18 02:07:38;;;;;;;2.30;2.20;;;24.50;61.30;;;;;;5031625;28;20060;-35
2022/08/18 02:10:08;;;;;;;2.35;2.25;;;24.50;61.20;;;;;;5048862;28;20019;-35
2022/08/18 02:12:34;;;;;;;2.70;2.60;;;24.50;61.30;;;;;;5050199;28;20055;-30
2022/08/18 02:14:59;;;;;;;2.50;2.40;;;24.50;61.30;;;;;;5050219;28;20539;-29
2022/08/18 02:17:25;;;;;;;2.85;2.75;;;24.50;61.30;;;;;;5047092;28;20071;-29
2022/08/18 02:19:50;;;;;;;2.80;2.60;;;24.50;61.30;;;;;;5049766;28;20671;-29
2022/08/18 02:22:18;;;;;;;2.28;2.17;;;24.50;61.20;;;;;;5050404;28;20025;-33
2022/08/18 02:24:44;;;;;;;2.90;2.80;;;24.50;61.20;;;;;;5046952;28;20488;-30
2022/08/18 02:27:10;;;;;;;2.42;2.33;;;24.50;61.20;;;;;;5047365;28;20067;-31
2022/08/18 02:29:36;;;;;;;2.67;2.58;;;24.50;61.20;;;;;;5049820;28;20139;-30
2022/08/18 02:32:02;;;;;;;2.47;2.38;;;24.50;61.20;;;;;;5047831;28;20488;-33
2022/08/18 02:34:28;;;;;;;2.92;2.83;;;24.50;61.20;;;;;;5050749;28;20021;-29
2022/08/18 02:36:53;;;;;;;2.90;2.80;;;24.50;61.30;;;;;;5047659;28;20783;-32
2022/08/18 02:39:19;;;;;;;2.50;2.40;;;24.50;61.30;;;;;;5049636;28;20033;-33
2022/08/18 02:41:44;;;;;;;3.50;3.30;;;24.50;61.30;;;;;;5045991;28;20163;-32
2022/08/18 02:44:10;;;;;;;2.70;2.60;;;24.50;62.10;;;;;;5048238;28;20070;-31
2022/08/18 02:46:36;;;;;;;2.50;2.40;;;24.50;61.20;;;;;;5048028;28;20119;-28
2022/08/18 02:49:02;;;;;;;2.72;2.53;;;24.50;61.30;;;;;;5048988;28;20030;-31
2022/08/18 02:51:28;;;;;;;2.60;2.50;;;24.50;61.20;;;;;;5047712;28;20040;-28
2022/08/18 02:53:53;;;;;;;2.70;2.60;;;24.50;61.30;;;;;;5048169;28;20025;-31
2022/08/18 02:56:24;;;;;;;2.70;2.60;;;24.50;61.30;;;;;;5048387;28;20028;-32
2022/08/18 02:58:56;;;;;;;2.90;2.80;;;24.50;61.30;;;;;;5048208;28;20384;-32
2022/08/18 03:01:24;;;;;;;2.83;2.72;;;24.40;61.30;;;;;;5032751;28;20559;-31
2022/08/18 03:03:50;;;;;;;2.85;2.75;;;24.50;61.30;;;;;;5049000;28;20131;-32
2022/08/18 03:06:16;;;;;;;2.90;2.80;;;24.40;61.30;;;;;;5047488;28;20573;-31
2022/08/18 03:08:42;;;;;;;3.53;3.40;;;24.40;61.20;;;;;;5047553;28;20032;-28
2022/08/18 03:11:08;;;;;;;2.67;2.58;;;24.40;61.30;;;;;;5050039;28;20044;-32
2022/08/18 03:13:34;;;;;;;2.80;2.70;;;24.40;61.30;;;;;;5046525;28;20025;-28
2022/08/18 03:15:59;;;;;;;3.17;3.08;;;24.40;61.30;;;;;;5048210;28;20043;-32
2022/08/18 03:18:25;;;;;;;3.35;3.15;;;24.40;61.30;;;;;;5047594;28;20071;-30
2022/08/18 03:20:50;;;;;;;2.65;2.55;;;24.40;61.30;;;;;;5047815;28;20020;-28
2022/08/18 03:23:17;;;;;;;2.50;2.40;;;24.40;61.30;;;;;;5049441;28;20448;-29
2022/08/18 03:25:47;;;;;;;2.65;2.55;;;24.40;61.20;;;;;;5048114;28;20492;-28
2022/08/18 03:28:13;;;;;;;2.55;2.45;;;24.40;61.20;;;;;;5046647;28;20021;-31
2022/08/18 03:30:39;;;;;;;2.53;2.42;;;24.50;61.30;;;;;;5047253;28;20057;-29
2022/08/18 03:33:04;;;;;;;2.85;2.75;;;24.50;61.30;;;;;;5050322;28;20061;-33
2022/08/18 03:35:30;;;;;;;2.63;2.53;;;24.50;61.20;;;;;;5048071;28;20029;-33
2022/08/18 03:37:58;;;;;;;2.67;2.58;;;24.50;61.30;;;;;;5047315;28;20555;-31
2022/08/18 03:40:24;;;;;;;2.65;2.55;;;24.40;61.20;;;;;;5006864;28;20042;-28
2022/08/18 03:42:50;;;;;;;3.00;2.80;;;24.50;61.30;;;;;;5007044;28;20088;-28
2022/08/18 03:45:15;;;;;;;2.60;2.50;;;24.50;61.30;;;;;;5006483;28;20404;-30
2022/08/18 03:47:41;;;;;;;2.80;2.70;;;24.40;61.40;;;;;;5008164;28;20054;-31
2022/08/18 03:50:07;;;;;;;2.72;2.63;;;24.40;61.40;;;;;;5007940;28;20029;-30
2022/08/18 03:52:36;;;;;;;2.60;2.50;;;24.40;62.20;;;;;;5009684;28;20109;-28
2022/08/18 03:55:02;;;;;;;2.72;2.63;;;24.40;61.40;;;;;;5009794;28;20489;-30
2022/08/18 03:57:31;;;;;;;2.78;2.67;;;24.40;61.40;;;;;;5007824;28;20018;-30
2022/08/18 03:59:57;;;;;;;2.50;2.40;;;24.40;61.40;;;;;;5006599;28;20433;-31
2022/08/18 04:02:22;;;;;;;3.00;2.90;;;24.40;61.40;;;;;;5007390;28;20248;-33
2022/08/18 04:04:48;;;;;;;2.80;2.70;;;24.40;61.30;;;;;;5006874;28;20026;-32
2022/08/18 04:07:15;;;;;;;2.55;2.45;;;24.40;61.40;;;;;;5007597;28;20030;-30
2022/08/18 04:09:42;;;;;;;3.10;2.90;;;24.40;61.40;;;;;;5006679;28;20030;-33
2022/08/18 04:12:11;;;;;;;2.90;2.80;;;24.40;61.50;;;;;;5005863;28;20158;-29
2022/08/18 04:14:37;;;;;;;3.05;2.95;;;24.40;61.50;;;;;;5009943;28;20481;-28
2022/08/18 04:17:02;;;;;;;3.03;2.92;;;24.40;61.50;;;;;;5006429;28;20461;-29
2022/08/18 04:19:29;;;;;;;2.78;2.67;;;24.40;61.50;;;;;;5008414;28;20539;-31
2022/08/18 04:21:56;;;;;;;2.63;2.53;;;24.40;61.50;;;;;;5004439;28;20060;-32
2022/08/18 04:24:22;;;;;;;2.58;2.47;;;24.40;61.50;;;;;;5006481;28;20056;-32
2022/08/18 04:26:47;;;;;;;2.60;2.50;;;24.40;61.60;;;;;;5004710;28;20080;-28
2022/08/18 04:29:15;;;;;;;2.50;2.40;;;24.40;61.60;;;;;;5010683;28;20266;-28
2022/08/18 04:31:41;;;;;;;2.70;2.60;;;24.40;61.50;;;;;;5006292;28;20037;-31
2022/08/18 04:34:06;;;;;;;2.58;2.47;;;24.40;61.60;;;;;;5008215;28;20025;-34
2022/08/18 04:36:35;;;;;;;2.63;2.53;;;24.40;61.60;;;;;;5006517;28;20022;-31
2022/08/18 04:39:06;;;;;;;2.40;2.30;;;24.40;61.60;;;;;;5023454;28;20037;-30
2022/08/18 04:41:32;;;;;;;2.67;2.58;;;24.40;61.60;;;;;;5046123;28;20029;-32
2022/08/18 04:44:00;;;;;;;2.45;2.35;;;24.40;61.70;;;;;;5044173;28;20083;-29
2022/08/18 04:46:26;;;;;;;2.60;2.50;;;24.40;61.60;;;;;;5045930;28;20029;-32
2022/08/18 04:48:51;;;;;;;2.90;2.80;;;24.40;61.70;;;;;;5043710;28;20033;-29
2022/08/18 04:51:18;;;;;;;3.45;2.80;;;24.40;61.70;;;;;;5044915;28;20056;-29
2022/08/18 04:53:44;;;;;;;2.75;2.65;;;24.40;61.70;;;;;;5045778;28;20380;-32
2022/08/18 04:56:16;;;;;;;2.60;2.50;;;24.40;61.70;;;;;;5045948;28;20107;-31
2022/08/18 04:58:41;;;;;;;2.70;2.60;;;24.40;61.60;;;;;;5043341;28;20074;-33
2022/08/18 05:01:08;;;;;;;2.60;2.50;;;24.40;61.70;;;;;;5045783;28;20021;-31
2022/08/18 05:03:35;;;;;;;3.08;2.88;;;24.40;61.80;;;;;;5043502;28;20480;-29
2022/08/18 05:06:02;;;;;;;2.83;2.63;;;24.40;61.90;;;;;;5046794;28;20025;-35
2022/08/18 05:08:29;;;;;;;3.08;2.88;;;24.30;61.70;;;;;;5044780;28;20025;-28
2022/08/18 05:10:56;;;;;;;2.90;2.70;;;24.30;61.70;;;;;;5045471;28;20024;-30
2022/08/18 05:13:22;;;;;;;3.13;3.03;;;24.40;61.80;;;;;;5046010;28;20103;-31
2022/08/18 05:15:56;;;;;;;2.53;2.42;;;24.40;61.80;;;;;;5045305;28;20025;-33
2022/08/18 05:18:25;;;;;;;2.58;2.47;;;24.40;61.80;;;;;;5045516;28;20017;-30
2022/08/18 05:20:51;;;;;;;2.80;2.60;;;24.40;61.80;;;;;;5045847;28;20029;-30
2022/08/18 05:23:18;;;;;;;2.95;2.85;;;24.40;61.70;;;;;;5046602;28;20029;-32
2022/08/18 05:25:44;;;;;;;3.50;2.65;;;24.40;61.80;;;;;;5043421;28;20033;-32
2022/08/18 05:28:09;;;;;;;2.70;2.60;;;24.40;61.70;;;;;;5044842;28;20504;-32
2022/08/18 05:30:36;;;;;;;2.88;2.78;;;24.40;61.70;;;;;;5044629;28;20507;-30
2022/08/18 05:33:02;;;;;;;2.47;2.38;;;24.40;61.70;;;;;;5045060;28;20030;-29
2022/08/18 05:35:34;;;;;;;2.42;2.33;;;24.40;61.70;;;;;;5045450;28;20446;-31
2022/08/18 05:38:03;;;;;;;2.50;2.40;;;24.40;61.80;;;;;;5028425;28;20025;-33
2022/08/18 05:40:30;;;;;;;3.20;3.00;;;24.40;61.70;;;;;;5044767;28;20377;-31
2022/08/18 05:42:56;;;;;;;2.80;2.70;;;24.30;61.70;;;;;;5045423;28;20025;-32
2022/08/18 05:45:21;;;;;;;2.83;2.72;;;24.30;61.80;;;;;;5027551;28;20546;-29
2022/08/18 05:47:47;;;;;;;3.05;2.60;;;24.30;61.80;;;;;;5029989;28;20064;-34
2022/08/18 05:50:18;;;;;;;2.90;2.80;;;24.30;61.90;;;;;;5044359;28;20017;-31
2022/08/18 05:52:51;;;;;;;2.88;2.78;;;24.30;61.90;;;;;;5028870;28;20041;-31
2022/08/18 05:58:14;;;;;;;2.60;2.50;;;24.30;62.00;;;;;;5031226;28;20548;-28
2022/08/18 06:00:40;;;;;;;3.10;3.00;;;24.30;61.90;;;;;;5028032;28;20108;-31
2022/08/18 06:03:18;;;;;;;2.60;2.50;;;24.30;62.10;;;;;;5026356;28;20155;-28
2022/08/18 06:06:07;;;;;;;2.63;2.53;;;24.30;62.00;;;;;;5043431;28;20477;-30
2022/08/18 06:08:37;;;;;;;2.60;2.50;;;24.30;62.10;;;;;;5026647;28;20017;-33
2022/08/18 06:11:03;;;;;;;2.92;2.83;;;24.30;62.10;;;;;;5029375;28;20078;-31
2022/08/18 06:13:29;;;;;;;3.00;2.90;;;24.30;62.20;;;;;;5045141;28;20076;-29
2022/08/18 06:16:25;;;;;;;3.20;3.10;;;24.30;62.20;;;;;;5012079;28;20033;-31
2022/08/18 06:19:07;;;;;;;2.67;2.55;;;24.30;62.50;;;;;;5014906;28;20013;-35
2022/08/18 06:21:44;;;;;;;2.35;2.15;;;24.30;62.20;;;;;;5009993;28;20028;-34
2022/08/18 06:24:19;;;;;;;2.67;2.58;;;24.30;62.30;;;;;;5043639;28;20029;-35
2022/08/18 06:26:55;;;;;;;3.00;2.90;;;24.30;62.30;;;;;;5028001;28;20033;-31
2022/08/18 06:29:46;;;;;;;3.17;3.08;;;24.30;62.40;;;;;;5046885;28;20036;-35
2022/08/18 06:32:14;;;;;;;3.15;3.05;;;24.30;62.30;;;;;;5042209;28;20029;-33
2022/08/18 06:34:46;;;;;;;2.70;2.60;;;24.30;62.50;;;;;;5046252;28;20072;-35
2022/08/18 06:37:26;;;;;;;2.85;2.67;;;24.30;62.30;;;;;;5045267;28;20100;-32
2022/08/18 06:39:51;;;;;;;2.75;2.65;;;24.30;62.30;;;;;;5044852;28;20128;-34
2022/08/18 06:42:25;;;;;;;2.80;2.70;;;24.30;62.50;;;;;;5047667;28;20128;-29
2022/08/18 06:45:05;;;;;;;3.33;3.23;;;24.30;62.50;;;;;;5045619;28;20503;-29
2022/08/18 06:48:18;;;;;;;2.88;2.67;;;24.30;62.50;;;;;;5014282;28;20438;-30
2022/08/18 06:50:52;;;;;;;2.40;2.30;;;24.30;62.50;;;;;;4949346;29;20039;-31
2022/08/18 06:53:18;;;;;;;2.58;2.47;;;24.30;62.40;;;;;;4947893;28;20062;-28
2022/08/18 06:55:45;;;;;;;3.05;2.95;;;24.30;62.50;;;;;;4933382;29;20603;-33
2022/08/18 06:58:19;;;;;;;2.80;2.70;;;24.30;62.50;;;;;;4934113;29;20471;-33
2022/08/18 07:00:50;;;;;;;;;;;24.30;62.60;;;;;;4949606;29;20039;-29
2022/08/18 07:03:19;;;;;;;2.67;2.58;;;24.30;62.70;;;;;;4950472;29;19914;-40
2022/08/18 07:05:57;;;;;;;3.17;3.08;;;24.30;62.60;;;;;;4948597;29;20043;-34
2022/08/18 07:08:28;;;;;;;3.05;2.92;;;24.30;62.50;;;;;;4947956;29;20027;-32
2022/08/18 07:10:54;;;;;;;3.22;3.13;;;24.30;62.50;;;;;;4933161;29;20042;-31
2022/08/18 07:13:25;;;;;;;3.00;2.90;;;24.30;62.50;;;;;;4934070;29;20043;-28
2022/08/18 07:15:51;;;;;;;2.88;2.78;;;24.30;62.50;;;;;;4934260;28;20027;-31
2022/08/18 07:18:22;;;;;;;2.92;2.72;;;24.30;62.60;;;;;;4949350;29;20047;-28
2022/08/18 07:21:05;;;;;;;2.80;2.70;;;24.30;62.50;;;;;;4949240;29;20042;-32
2022/08/18 07:23:39;;;;;;;2.58;2.47;;;24.30;62.60;;;;;;4956909;28;20058;-36
2022/08/18 07:26:14;;;;;;;2.70;2.60;;;24.30;62.60;;;;;;5031623;28;20488;-35
2022/08/18 07:28:44;;;;;;;2.67;2.58;;;24.30;62.60;;;;;;5045812;28;20108;-36
2022/08/18 07:31:17;;;;;;;2.80;2.70;;;24.30;62.60;;;;;;5047637;28;20496;-31
2022/08/18 07:33:44;;;;;;;2.50;2.40;;;24.30;62.70;;;;;;5031541;28;20083;-33
2022/08/18 07:36:09;;;;;;;2.75;2.65;;;24.30;62.80;;;;;;5014583;28;20120;-32
2022/08/18 07:38:44;;;;;;;2.63;2.53;;;24.30;62.80;;;;;;5030539;28;20601;-29
2022/08/18 07:41:46;;;;;;;2.88;2.78;;;24.30;62.80;;;;;;5014171;28;20033;-30
2022/08/18 07:44:26;;;;;;;2.55;2.45;;;24.30;62.90;;;;;;5027207;28;20091;-32
2022/08/18 07:46:58;;;;;;;2.60;2.50;;;24.30;62.80;;;;;;5031176;28;20021;-29
2022/08/18 07:49:25;;;;;;;2.65;2.55;;;24.30;62.80;;;;;;5029102;28;20484;-29
2022/08/18 07:51:58;;;;;;;2.38;2.28;;;24.30;62.80;;;;;;5031570;28;20025;-31
2022/08/18 07:54:49;;;;;;;2.70;2.60;;;24.30;62.80;;;;;;5046764;28;20170;-31
2022/08/18 07:57:17;;;;;;;2.40;2.30;;;24.30;62.80;;;;;;5048002;28;20249;-31
2022/08/18 07:59:47;;;;;;;2.47;2.25;;;24.30;63.00;;;;;;5048458;28;20033;-30
2022/08/18 08:02:18;;;;;;;3.00;2.90;;;24.30;62.80;;;;;;5047838;28;20484;-32
2022/08/18 08:04:52;;;;;;;2.90;2.70;;;24.30;62.80;;;;;;5030581;28;20036;-29
2022/08/18 08:07:24;;;;;;;2.50;2.40;;;24.30;62.80;;;;;;5046352;28;20021;-30
2022/08/18 08:09:59;;;;;;;2.20;2.10;;;24.30;62.90;;;;;;5014495;28;20028;-29
2022/08/18 08:12:36;;;;;;;2.47;2.38;;;24.30;62.80;;;;;;5045763;28;20025;-32
2022/08/18 08:15:30;;;;;;;2.90;2.80;;;24.30;62.80;;;;;;5047795;28;20105;-29
2022/08/18 08:18:17;;;;;;;2.67;2.58;;;24.30;62.90;;;;;;5030353;28;20030;-30
2022/08/18 08:20:57;;;;;;;2.80;2.70;;;24.30;62.90;;;;;;5014928;28;20119;-33
2022/08/18 08:23:41;;;;;;;3.00;2.90;;;24.30;62.80;;;;;;5030305;28;20492;-32
2022/08/18 08:26:07;;;;;;;;;;;24.30;62.80;;;;;;5047245;28;20059;-31
2022/08/18 08:28:58;;;;;;;2.35;2.25;;;24.30;62.80;;;;;;5047310;28;19963;-29
2022/08/18 08:31:32;;;;;;;2.40;2.30;;;24.30;62.80;;;;;;5029208;28;20021;-28
2022/08/18 08:34:07;;;;;;;2.50;2.40;;;24.30;62.80;;;;;;5012941;28;20029;-32
2022/08/18 08:36:37;;;;;;;2.60;2.50;;;24.30;62.80;;;;;;5031226;28;20032;-33
2022/08/18 08:39:12;;;;;;;2.92;2.83;;;24.30;62.80;;;;;;5029865;28;20115;-34
2022/08/18 08:41:49;;;;;;;2.50;2.40;;;24.30;62.80;;;;;;5030257;28;20091;-31
2022/08/18 08:44:18;;;;;;;2.20;2.10;;;24.30;63.70;;;;;;5045103;28;20495;-30
2022/08/18 08:47:31;;;;;;;2.28;2.17;;;24.30;62.80;;;;;;5045632;28;20029;-28
2022/08/18 08:50:00;;;;;;;2.33;2.22;;;24.30;62.80;;;;;;5003969;28;20139;-35
2022/08/18 08:52:30;;;;;;;2.30;2.20;;;24.40;62.80;;;;;;5013426;28;20109;-30
2022/08/18 08:55:14;;;;;;;2.28;2.17;;;24.30;62.80;;;;;;5029407;28;20020;-32
2022/08/18 08:58:18;;;;;;;2.28;2.17;;;24.30;62.80;;;;;;5011217;28;20082;-30
2022/08/18 09:00:43;;;;;;;2.33;2.22;;;24.30;62.80;;;;;;4973281;28;20043;-30
2022/08/18 09:03:21;;;;;;;2.10;2.00;;;24.40;62.80;;;;;;4960315;28;20050;-32
2022/08/18 09:05:58;;;;;;;2.42;2.33;;;24.40;62.90;;;;;;4955234;28;20046;-32
2022/08/18 09:08:55;;;;;;;2.28;2.17;;;24.40;63.00;;;;;;4973295;28;20124;-31
2022/08/18 09:11:27;;;;;;;2.20;2.10;;;24.40;62.80;;;;;;4951323;28;20038;-36
2022/08/18 09:14:04;;;;;;;2.35;2.25;;;24.40;62.90;;;;;;4972108;28;20023;-32
2022/08/18 09:16:47;;;;;;;2.35;2.25;;;24.40;63.20;;;;;;4957240;28;20082;-32
2022/08/18 09:19:28;;;;;;;2.25;2.15;;;24.30;63.10;;;;;;4979048;28;20034;-28
2022/08/18 09:22:18;;;;;;;2.78;2.67;;;24.30;63.40;;;;;;4980738;28;20073;-31
2022/08/18 09:24:49;;;;;;;2.15;2.05;;;24.30;63.40;;;;;;4956365;28;20043;-30
2022/08/18 09:27:37;;;;;;;2.30;2.20;;;24.30;63.30;;;;;;4956571;28;20118;-33
2022/08/18 09:30:04;;;;;;;2.17;2.08;;;24.30;63.20;;;;;;4975393;28;20031;-33
2022/08/18 09:32:34;;;;;;;2.47;2.38;;;24.30;63.30;;;;;;4975460;28;20069;-31
2022/08/18 09:35:22;;;;;;;2.10;2.00;;;24.30;63.20;;;;;;4953737;28;20505;-31
2022/08/18 09:44:09;;;;;;;2.00;1.90;;;24.30;63.40;;;;;;5032305;28;20040;-37
2022/08/18 09:46:40;;;;;;;2.00;1.90;;;24.30;63.30;;;;;;5047157;28;20515;-30
2022/08/18 09:49:21;;;;;;;2.20;2.10;;;24.40;63.30;;;;;;5045009;28;20024;-34
2022/08/18 09:51:47;;;;;;;2.65;2.30;;;24.40;63.20;;;;;;5044117;28;20033;-29
2022/08/18 09:54:14;;;;;;;2.20;2.10;;;24.40;63.30;;;;;;5045239;28;20154;-32
2022/08/18 09:56:48;;;;;;;2.08;1.98;;;24.40;63.00;;;;;;5027244;28;20024;-29
2022/08/18 09:59:35;;;;;;;2.38;2.28;;;24.40;63.10;;;;;;5045699;28;20400;-29
2022/08/18 10:02:09;;;;;;;1.70;1.70;;;24.40;63.00;;;;;;5005975;28;20052;-32
2022/08/18 10:04:35;;;;;;;2.08;1.98;;;24.40;63.00;;;;;;5030304;28;20032;-31
2022/08/18 10:07:14;;;;;;;1.83;1.73;;;24.50;63.10;;;;;;5028396;28;20028;-33
2022/08/18 10:09:52;;;;;;;1.95;1.95;;;24.50;62.90;;;;;;5043574;28;20032;-31
2022/08/18 10:12:26;;;;;;;2.40;2.30;;;24.50;63.10;;;;;;5044360;28;20036;-30
2022/08/18 10:15:03;;;;;;;1.88;1.80;;;24.40;63.00;;;;;;5028125;28;20524;-31
2022/08/18 10:17:58;;;;;;;1.90;1.80;;;24.40;62.80;;;;;;5030833;28;20024;-30
2022/08/18 10:20:23;;;;;;;;;;;24.50;62.90;;;;;;5017389;28;20025;-35
2022/08/18 10:22:49;;;;;;;1.83;1.73;;;24.50;62.90;;;;;;5048480;28;20367;-37
2022/08/18 10:25:39;;;;;;;1.67;1.58;;;24.50;62.90;;;;;;5045361;28;20094;-28
2022/08/18 10:28:08;;;;;;;1.70;1.60;;;24.50;62.90;;;;;;5047817;28;20119;-28
2022/08/18 10:30:34;;;;;;;1.55;1.55;;;24.50;62.80;;;;;;5047682;28;20027;-29
2022/08/18 10:33:05;;;;;;;1.58;1.58;;;24.50;62.80;;;;;;5049341;28;20432;-29
2022/08/18 10:35:34;;;;;;;1.88;1.77;;;24.60;63.40;;;;;;5047596;28;20045;-32
2022/08/18 10:38:02;;;;;;;2.05;1.95;;;24.60;62.50;;;;;;5050410;28;20086;-31
2022/08/18 10:40:28;;;;;;;1.80;1.80;;;24.60;62.50;;;;;;5033163;28;20041;-30
2022/08/18 10:43:13;;;;;;;1.98;1.88;;;24.60;62.50;;;;;;5031691;28;20039;-35
2022/08/18 10:45:51;;;;;;;1.42;1.42;;;24.60;62.50;;;;;;5026975;28;20087;-34
2022/08/18 10:48:24;;;;;;;1.65;1.60;;;24.60;62.40;;;;;;5031388;28;20029;-33
2022/08/18 10:51:01;;;;;;;1.48;1.48;;;24.60;62.30;;;;;;5047993;28;20099;-30
2022/08/18 10:53:58;;;;;;;1.50;1.50;;;24.60;62.20;;;;;;5031534;28;20024;-32
2022/08/18 10:56:48;;;;;;;1.48;1.48;;;24.60;62.40;;;;;;5044862;28;20025;-28
2022/08/18 10:59:26;;;;;;;1.73;1.73;;;24.60;62.40;;;;;;5034190;28;20515;-30
2022/08/18 11:02:05;;;;;;;1.55;1.55;;;24.60;62.50;;;;;;5049262;28;20029;-35
2022/08/18 11:04:41;;;;;;;1.50;1.50;;;24.60;62.50;;;;;;5047786;28;20446;-28
2022/08/18 11:07:10;;;;;;;1.40;1.40;;;24.60;62.30;;;;;;5016600;28;20025;-33
2022/08/18 11:09:36;;;;;;;1.15;1.15;;;24.60;62.30;;;;;;5030453;28;20064;-31
2022/08/18 11:12:02;;;;;;;1.50;1.50;;;24.70;62.30;;;;;;5030853;28;20059;-31
2022/08/18 11:14:37;;;;;;;1.50;1.50;;;24.70;62.10;;;;;;5014808;28;20021;-31
2022/08/18 11:17:24;;;;;;;1.50;1.50;;;24.70;62.20;;;;;;5050138;28;20086;-30
2022/08/18 11:19:49;;;;;;;1.60;1.50;;;24.60;62.00;;;;;;5048140;28;20036;-31
2022/08/18 11:22:23;;;;;;;2.08;1.80;;;24.70;62.10;;;;;;5048149;28;20550;-34
2022/08/18 11:24:48;;;;;;;1.60;1.60;;;24.70;62.00;;;;;;5048066;28;20024;-28
2022/08/18 11:27:22;;;;;;;1.50;1.50;;;24.70;62.00;;;;;;5046330;28;20037;-33
2022/08/18 11:29:48;;;;;;;;;;;24.70;62.00;;;;;;5050264;28;20073;-29
2022/08/18 11:32:22;;;;;;;1.20;1.20;;;24.70;61.90;;;;;;5031734;28;19913;-33
2022/08/18 11:34:57;;;;;;;1.50;1.50;;;24.70;61.90;;;;;;5032020;28;20037;-28
2022/08/18 11:37:22;;;;;;;1.40;1.40;;;24.70;61.80;;;;;;5048589;28;20025;-31
2022/08/18 11:39:49;;;;;;;1.38;1.38;;;24.70;61.90;;;;;;5046565;28;20405;-37
2022/08/18 11:42:16;;;;;;;1.90;1.80;;;24.70;61.90;;;;;;5048508;28;20021;-33
2022/08/18 11:44:41;;;;;;;1.50;1.42;;;24.70;61.80;;;;;;5049635;28;20175;-31
2022/08/18 11:47:17;;;;;;;1.50;1.50;;;24.70;61.90;;;;;;5030450;28;22150;-35
2022/08/18 11:49:57;;;;;;;1.40;1.40;;;24.70;61.90;;;;;;5031151;28;20051;-31
2022/08/18 11:52:26;;;;;;;1.40;1.40;;;24.70;61.90;;;;;;5011623;28;20040;-28
2022/08/18 11:54:51;;;;;;;1.25;1.25;;;24.80;62.00;;;;;;5045165;28;20025;-29
2022/08/18 11:57:39;;;;;;;1.30;1.30;;;24.70;61.90;;;;;;5031183;28;20032;-32
2022/08/18 12:00:40;;;;;;;1.40;1.30;;;24.70;61.90;;;;;;5045838;28;20078;-30
2022/08/18 12:03:18;;;;;;;1.15;1.15;;;24.70;61.80;;;;;;5045300;28;20035;-33
2022/08/18 12:05:52;;;;;;;1.20;1.20;;;24.80;61.80;;;;;;5044997;28;20029;-36
2022/08/18 12:08:43;;;;;;;1.38;1.33;;;24.70;61.80;;;;;;5030258;28;20048;-32
2022/08/18 12:11:17;;;;;;;1.40;1.40;;;24.70;61.80;;;;;;5032087;28;20052;-30
2022/08/18 12:13:47;;;;;;;1.40;1.40;;;24.80;61.80;;;;;;5026341;28;20037;-31
2022/08/18 12:16:18;;;;;;;1.52;1.52;;;24.70;61.70;;;;;;5031220;28;20123;-29
2022/08/18 12:18:43;;;;;;;1.02;1.02;;;24.70;61.80;;;;;;5031175;28;22016;-31
2022/08/18 12:21:09;;;;;;;1.27;1.27;;;24.70;61.80;;;;;;5047623;28;20024;-31
2022/08/18 12:23:35;;;;;;;1.30;1.30;;;24.80;61.80;;;;;;5048030;28;20033;-33
2022/08/18 12:26:01;;;;;;;1.50;1.48;;;24.70;61.70;;;;;;5031417;28;20039;-28
2022/08/18 12:28:26;;;;;;;1.60;1.50;;;24.80;61.70;;;;;;5048149;28;20120;-43
2022/08/18 12:30:52;;;;;;;1.20;1.10;;;24.70;61.60;;;;;;5047004;28;20024;-44
2022/08/18 12:33:18;;;;;;;1.27;1.27;;;24.80;61.70;;;;;;5028241;28;20492;-43
2022/08/18 12:35:44;;;;;;;1.30;1.30;;;24.80;61.60;;;;;;5046257;28;20035;-43
2022/08/18 12:38:10;;;;;;;1.30;1.30;;;24.80;61.60;;;;;;5046330;28;20523;-43
2022/08/18 12:40:36;;;;;;;1.20;1.20;;;24.80;61.60;;;;;;5046655;28;20480;-43
2022/08/18 12:43:02;;;;;;;1.40;1.40;;;24.80;61.50;;;;;;5046945;28;20104;-43
2022/08/18 12:45:29;;;;;;;1.45;1.45;;;24.80;61.50;;;;;;5043175;28;20045;-43
2022/08/18 12:47:55;;;;;;;1.58;1.58;;;24.80;61.50;;;;;;5047064;28;20025;-43
2022/08/18 12:50:21;;;;;;;1.27;1.27;;;24.90;61.50;;;;;;5045286;28;20036;-43
2022/08/18 12:52:46;;;;;;;1.30;1.30;;;24.80;61.40;;;;;;5046713;28;20040;-43
2022/08/18 12:55:12;;;;;;;1.20;1.20;;;24.90;61.50;;;;;;5046023;28;20025;-43
2022/08/18 12:57:38;;;;;;;1.20;1.20;;;24.90;61.50;;;;;;5047118;28;20450;-44
2022/08/18 13:00:04;;;;;;;1.15;1.15;;;24.90;61.40;;;;;;5045406;28;20187;-43
2022/08/18 13:02:30;;;;;;;1.60;1.50;;;24.80;61.30;;;;;;5046959;28;20028;-43
2022/08/18 13:04:57;;;;;;;1.25;1.25;;;24.80;62.20;;;;;;5047297;28;20028;-43
2022/08/18 13:07:22;;;;;;;1.13;1.13;;;24.80;61.50;;;;;;5045330;28;20029;-43
2022/08/18 13:09:48;;;;;;;1.13;1.13;;;24.90;61.40;;;;;;5045863;28;20037;-43
2022/08/18 13:12:14;;;;;;;1.10;1.10;;;24.90;61.50;;;;;;5046100;28;20500;-43
2022/08/18 13:14:40;;;;;;;1.20;1.20;;;24.90;61.40;;;;;;5044634;28;20091;-43
2022/08/18 13:17:06;;;;;;;1.20;1.20;;;24.90;61.40;;;;;;5048123;28;20021;-43
2022/08/18 13:19:31;;;;;;;1.10;1.10;;;24.90;61.40;;;;;;5046625;28;20033;-43
2022/08/18 13:21:57;;;;;;;1.10;1.10;;;24.90;61.40;;;;;;5044811;28;20050;-43